Time;durP1;ratioP1;P1;durP2;ratioP2;P2;SDS_P1;SDS_P2;PMS_P1;PMS_P2;Temp;Humidity;BMP_temperature;BMP_pressure;BME280_temperature;BME280_humidity;BME280_pressure;Samples;Min_cycle;Max_cycle;Signal;HPM_P1;HPM_P2
2024/01/09 00:02:25;;;;;;;7.40;4.75;;;-2.90;99.90;;;;;;5069032;28;20060;-62
2024/01/09 00:04:51;;;;;;;7.35;4.60;;;-2.80;99.90;;;;;;5067547;28;20052;-64
2024/01/09 00:07:18;;;;;;;6.78;4.22;;;-2.90;99.90;;;;;;5067565;28;20082;-64
2024/01/09 00:09:44;;;;;;;;;;;-2.90;99.90;;;;;;5069113;28;20418;-63
2024/01/09 00:12:11;;;;;;;7.40;4.35;;;-3.00;99.90;;;;;;5071144;28;19924;-63
2024/01/09 00:14:38;;;;;;;7.20;4.40;;;-3.00;99.90;;;;;;5072479;28;20055;-64
2024/01/09 00:17:06;;;;;;;8.27;4.88;;;-2.90;99.90;;;;;;5071855;28;20432;-63
2024/01/09 00:19:33;;;;;;;;;;;-3.00;99.90;;;;;;5073009;28;20421;-62
2024/01/09 00:22:02;;;;;;;7.22;4.35;;;-3.10;99.90;;;;;;5070626;28;20306;-63
2024/01/09 00:24:28;;;;;;;6.20;4.70;;;-3.00;99.90;;;;;;5072291;28;20098;-63
2024/01/09 00:26:55;;;;;;;;;;;-3.00;99.90;;;;;;5072031;28;20468;-63
2024/01/09 00:29:21;;;;;;;6.97;4.80;;;-3.00;99.90;;;;;;5072463;28;20007;-64
2024/01/09 00:31:47;;;;;;;6.35;4.05;;;-3.00;99.90;;;;;;5072118;28;20052;-63
2024/01/09 00:34:14;;;;;;;;;;;-3.10;99.90;;;;;;5072554;28;20141;-62
2024/01/09 00:36:44;;;;;;;6.47;4.40;;;-3.20;99.90;;;;;;5071561;28;19920;-64
2024/01/09 00:39:11;;;;;;;7.63;5.13;;;-3.10;99.90;;;;;;5071665;28;20048;-63
2024/01/09 00:41:39;;;;;;;7.82;4.55;;;-3.10;99.90;;;;;;5070562;28;20045;-63
2024/01/09 00:44:05;;;;;;;6.45;4.20;;;-3.10;99.90;;;;;;5071999;28;20160;-63
2024/01/09 00:46:31;;;;;;;8.00;4.55;;;-3.10;99.90;;;;;;5070233;28;20088;-64
2024/01/09 00:48:58;;;;;;;5.88;3.80;;;-3.00;99.90;;;;;;5070411;28;20055;-63
2024/01/09 00:51:24;;;;;;;6.78;4.70;;;-3.10;99.90;;;;;;5071424;28;20048;-63
2024/01/09 00:53:51;;;;;;;5.30;3.83;;;-3.10;99.90;;;;;;5072128;28;20045;-64
2024/01/09 00:56:17;;;;;;;6.32;4.10;;;-3.20;99.90;;;;;;5072016;28;20062;-63
2024/01/09 00:58:44;;;;;;;6.32;4.20;;;-3.20;99.90;;;;;;5071027;28;20056;-64
2024/01/09 01:01:11;;;;;;;6.20;4.05;;;-3.10;99.90;;;;;;5070886;28;20488;-63
2024/01/09 01:03:37;;;;;;;7.35;3.72;;;-3.10;99.90;;;;;;5071785;28;20244;-62
2024/01/09 01:06:04;;;;;;;7.15;4.85;;;-3.20;99.90;;;;;;5071539;28;20056;-62
2024/01/09 01:08:31;;;;;;;6.47;3.95;;;-3.10;99.90;;;;;;5069790;28;20483;-62
2024/01/09 01:10:58;;;;;;;6.57;4.72;;;-3.10;99.90;;;;;;5071061;28;20427;-63
2024/01/09 01:13:25;;;;;;;6.88;4.45;;;-3.20;99.90;;;;;;5070001;28;20060;-64
2024/01/09 01:15:53;;;;;;;8.40;4.40;;;-3.30;99.90;;;;;;5070198;28;20067;-63
2024/01/09 01:18:19;;;;;;;6.85;3.97;;;-3.30;99.90;;;;;;5070818;28;20044;-62
2024/01/09 01:20:46;;;;;;;7.43;4.57;;;-3.40;99.90;;;;;;5071014;28;20044;-63
2024/01/09 01:23:14;;;;;;;5.68;4.35;;;-3.40;99.90;;;;;;5070881;28;20048;-63
2024/01/09 01:25:40;;;;;;;7.70;4.40;;;-3.50;99.90;;;;;;5070715;28;20055;-62
2024/01/09 01:28:07;;;;;;;8.00;3.78;;;-3.50;99.90;;;;;;5070707;28;20040;-63
2024/01/09 01:30:33;;;;;;;7.47;4.82;;;-3.50;99.90;;;;;;5070529;28;20412;-64
2024/01/09 01:32:59;;;;;;;6.45;3.83;;;-3.50;99.90;;;;;;5070775;28;20481;-65
2024/01/09 01:35:26;;;;;;;6.15;3.55;;;-3.50;99.90;;;;;;5070706;28;20044;-63
2024/01/09 01:37:52;;;;;;;6.03;4.18;;;-3.60;99.90;;;;;;5069067;28;20055;-62
2024/01/09 01:40:19;;;;;;;6.18;3.97;;;-3.60;99.90;;;;;;5070708;28;20097;-63
2024/01/09 01:42:46;;;;;;;6.15;3.80;;;-3.70;99.90;;;;;;5070821;28;20052;-63
2024/01/09 01:45:21;;;;;;;;;;;-3.60;99.90;;;;;;5071422;28;20048;-62
2024/01/09 01:47:48;;;;;;;5.28;3.90;;;-3.60;99.90;;;;;;5068776;28;20292;-63
2024/01/09 01:50:16;;;;;;;5.07;3.72;;;-3.60;99.90;;;;;;5070420;28;20045;-64
2024/01/09 01:52:46;;;;;;;;;;;-3.40;99.90;;;;;;5070947;28;20060;-63
2024/01/09 01:55:13;;;;;;;6.25;3.25;;;-3.60;99.90;;;;;;5070502;28;19920;-63
2024/01/09 01:57:42;;;;;;;6.00;3.42;;;-3.60;99.90;;;;;;5070197;28;20388;-63
2024/01/09 02:00:09;;;;;;;5.63;3.15;;;-3.70;99.90;;;;;;5068892;28;20041;-63
2024/01/09 02:02:37;;;;;;;6.55;4.47;;;-3.60;99.90;;;;;;5070295;28;20528;-64
2024/01/09 02:05:05;;;;;;;5.13;3.20;;;-3.60;99.90;;;;;;5069306;28;20053;-63
2024/01/09 02:07:34;;;;;;;5.05;3.55;;;-3.70;99.90;;;;;;5069233;28;20052;-63
2024/01/09 02:10:02;;;;;;;6.35;3.67;;;-3.70;99.90;;;;;;5052478;28;20045;-63
2024/01/09 02:12:30;;;;;;;5.88;3.38;;;-3.80;99.90;;;;;;5052795;28;20072;-64
2024/01/09 02:14:56;;;;;;;4.65;3.10;;;-3.60;99.90;;;;;;5070011;28;20051;-63
2024/01/09 02:17:23;;;;;;;;;;;-3.60;99.90;;;;;;5070386;28;20090;-63
2024/01/09 02:19:49;;;;;;;5.47;3.92;;;-3.60;99.90;;;;;;5068622;28;20229;-64
2024/01/09 02:22:15;;;;;;;4.70;3.80;;;-3.70;99.90;;;;;;5069755;28;20048;-63
2024/01/09 02:24:41;;;;;;;;;;;-3.60;99.90;;;;;;5070730;28;20058;-62
2024/01/09 02:27:13;;;;;;;4.90;3.97;;;-3.70;99.90;;;;;;5069623;28;19928;-63
2024/01/09 02:29:49;;;;;;;6.07;3.10;;;-3.70;99.90;;;;;;5070141;28;20048;-63
2024/01/09 02:32:17;;;;;;;6.25;4.07;;;-3.70;99.90;;;;;;5069826;28;20056;-63
2024/01/09 02:34:44;;;;;;;5.32;2.85;;;-3.60;99.90;;;;;;5069310;28;20055;-62
2024/01/09 02:37:11;;;;;;;6.43;3.78;;;-3.60;99.90;;;;;;5069305;28;20423;-63
2024/01/09 02:39:37;;;;;;;5.75;3.53;;;-3.70;99.90;;;;;;5069737;28;20048;-64
2024/01/09 02:42:04;;;;;;;;;;;-3.70;99.90;;;;;;5070022;28;20060;-63
2024/01/09 02:44:31;;;;;;;6.07;3.30;;;-3.70;99.90;;;;;;5052164;28;19924;-63
2024/01/09 02:46:57;;;;;;;6.10;3.72;;;-3.70;99.90;;;;;;5067500;28;20055;-62
2024/01/09 02:49:24;;;;;;;4.97;3.38;;;-3.70;99.90;;;;;;5069307;28;20514;-62
2024/01/09 02:51:50;;;;;;;6.03;3.88;;;-3.70;99.90;;;;;;5069387;28;20055;-61
2024/01/09 02:54:16;;;;;;;5.32;3.33;;;-3.70;99.90;;;;;;5069513;28;20364;-62
2024/01/09 02:56:42;;;;;;;;;;;-3.70;99.90;;;;;;5069567;28;20395;-63
2024/01/09 02:59:09;;;;;;;6.78;3.33;;;-3.80;99.90;;;;;;5069599;28;19928;-64
2024/01/09 03:01:35;;;;;;;5.97;3.83;;;-3.90;99.90;;;;;;5069318;28;20099;-63
2024/01/09 03:04:01;;;;;;;5.05;3.40;;;-3.90;99.90;;;;;;5069512;28;20060;-63
2024/01/09 03:06:28;;;;;;;;;;;-3.80;99.90;;;;;;5069606;28;20053;-63
2024/01/09 03:08:54;;;;;;;5.45;3.63;;;-3.90;99.90;;;;;;5069999;28;19924;-63
2024/01/09 03:11:20;;;;;;;3.97;3.10;;;-3.90;99.90;;;;;;5051592;28;20048;-63
2024/01/09 03:13:46;;;;;;;5.03;2.97;;;-3.90;99.90;;;;;;5068934;28;20105;-63
2024/01/09 03:16:13;;;;;;;5.53;3.30;;;-3.90;99.90;;;;;;5069045;28;20044;-61
2024/01/09 03:18:41;;;;;;;4.80;3.38;;;-3.90;99.90;;;;;;5067996;28;20354;-63
2024/01/09 03:21:12;;;;;;;4.68;3.30;;;-3.90;99.90;;;;;;5067991;28;20475;-62
2024/01/09 03:23:38;;;;;;;6.03;3.40;;;-3.90;99.90;;;;;;5069042;28;20048;-63
2024/01/09 03:26:04;;;;;;;11.30;4.18;;;-3.90;99.90;;;;;;5068456;28;20059;-63
2024/01/09 03:28:31;;;;;;;4.43;3.25;;;-3.90;99.90;;;;;;5068785;28;20045;-63
2024/01/09 03:30:57;;;;;;;5.10;3.33;;;-3.90;99.90;;;;;;5068982;28;20036;-62
2024/01/09 03:33:23;;;;;;;3.88;2.67;;;-4.00;99.90;;;;;;5068009;28;20056;-63
2024/01/09 03:35:49;;;;;;;5.93;3.25;;;-4.00;99.90;;;;;;5069231;28;20063;-63
2024/01/09 03:38:16;;;;;;;5.22;3.05;;;-4.00;99.90;;;;;;5067829;28;20048;-62
2024/01/09 03:40:43;;;;;;;6.22;3.53;;;-4.00;99.90;;;;;;5068057;28;20056;-62
2024/01/09 03:43:09;;;;;;;6.50;3.60;;;-4.00;99.90;;;;;;5068672;28;20057;-62
2024/01/09 03:45:35;;;;;;;5.75;3.58;;;-4.00;99.90;;;;;;5067650;28;20149;-63
2024/01/09 03:48:02;;;;;;;4.78;3.28;;;-4.00;99.90;;;;;;5070704;28;20048;-63
2024/01/09 03:50:28;;;;;;;;;;;-4.10;99.90;;;;;;5071959;28;20056;-62
2024/01/09 03:52:54;;;;;;;5.63;2.97;;;-4.10;99.90;;;;;;5072454;28;19993;-62
2024/01/09 03:55:20;;;;;;;5.82;4.05;;;-4.20;99.90;;;;;;5072635;28;20264;-62
2024/01/09 03:57:47;;;;;;;5.57;3.50;;;-4.20;99.90;;;;;;5071433;28;20059;-63
2024/01/09 04:00:13;;;;;;;4.15;2.80;;;-4.20;99.90;;;;;;5071231;28;20041;-61
2024/01/09 04:02:40;;;;;;;4.32;3.20;;;-4.30;99.90;;;;;;5072047;28;20075;-63
2024/01/09 04:05:06;;;;;;;4.60;3.13;;;-4.30;99.90;;;;;;5072235;28;20064;-63
2024/01/09 04:07:33;;;;;;;5.80;3.53;;;-4.40;99.90;;;;;;5071570;28;20677;-63
2024/01/09 04:09:59;;;;;;;5.28;3.20;;;-4.40;99.90;;;;;;5072309;28;20393;-62
2024/01/09 04:12:25;;;;;;;4.07;2.72;;;-4.40;99.90;;;;;;5072528;28;20079;-62
2024/01/09 04:14:51;;;;;;;;;;;-4.40;99.90;;;;;;5071264;28;20397;-63
2024/01/09 04:17:18;;;;;;;4.72;3.10;;;-4.40;99.90;;;;;;5070822;28;19921;-63
2024/01/09 04:19:44;;;;;;;4.97;3.42;;;-4.40;99.90;;;;;;5054669;28;20059;-63
2024/01/09 04:22:10;;;;;;;5.30;3.20;;;-4.40;99.90;;;;;;5070615;28;20068;-62
2024/01/09 04:24:36;;;;;;;;;;;-4.40;99.90;;;;;;5071676;28;20057;-62
2024/01/09 04:27:03;;;;;;;5.93;3.42;;;-4.30;99.90;;;;;;5071661;28;19924;-63
2024/01/09 04:29:29;;;;;;;5.65;3.28;;;-4.30;99.90;;;;;;5072449;28;20430;-63
2024/01/09 04:31:55;;;;;;;5.13;3.13;;;-4.30;99.90;;;;;;5071862;28;20063;-62
2024/01/09 04:34:22;;;;;;;5.45;3.22;;;-4.30;99.90;;;;;;5071518;28;20453;-63
2024/01/09 04:36:48;;;;;;;5.07;2.88;;;-4.40;99.90;;;;;;5071076;28;20487;-62
2024/01/09 04:39:14;;;;;;;4.93;3.22;;;-4.40;99.90;;;;;;5071156;28;20051;-63
2024/01/09 04:41:40;;;;;;;5.45;3.17;;;-4.50;99.90;;;;;;5069701;28;20059;-62
2024/01/09 04:44:07;;;;;;;5.15;3.50;;;-4.50;99.90;;;;;;5068365;28;20041;-63
2024/01/09 04:46:33;;;;;;;;;;;-4.60;99.90;;;;;;5070484;28;20048;-61
2024/01/09 04:49:03;;;;;;;5.90;3.08;;;-4.60;99.90;;;;;;5069945;28;19935;-62
2024/01/09 04:51:30;;;;;;;4.55;3.13;;;-4.60;99.90;;;;;;5070033;28;20396;-61
2024/01/09 04:53:57;;;;;;;5.68;3.28;;;-4.40;99.90;;;;;;5071624;28;20036;-62
2024/01/09 04:56:23;;;;;;;4.28;3.33;;;-4.50;99.90;;;;;;5069886;28;20527;-62
2024/01/09 04:58:53;;;;;;;;;;;-4.50;99.90;;;;;;5069491;28;20056;-61
2024/01/09 05:01:21;;;;;;;5.68;3.15;;;-4.60;99.90;;;;;;5071166;28;19936;-62
2024/01/09 05:03:48;;;;;;;7.47;3.90;;;-4.60;99.90;;;;;;5071017;28;20338;-63
2024/01/09 05:06:16;;;;;;;4.80;3.97;;;-4.60;99.90;;;;;;5070164;28;20071;-64
2024/01/09 05:08:43;;;;;;;7.95;3.15;;;-4.60;99.90;;;;;;5071392;28;20048;-62
2024/01/09 05:11:10;;;;;;;4.88;3.35;;;-4.60;99.90;;;;;;5070631;28;20057;-63
2024/01/09 05:13:36;;;;;;;;;;;-4.70;99.90;;;;;;5070704;28;20071;-61
2024/01/09 05:16:04;;;;;;;5.00;3.22;;;-4.60;99.90;;;;;;5104102;28;19924;-62
2024/01/09 05:18:31;;;;;;;4.88;3.70;;;-4.60;99.90;;;;;;5071304;28;20060;-62
2024/01/09 05:20:57;;;;;;;4.80;3.17;;;-4.60;99.90;;;;;;5070067;28;20056;-61
2024/01/09 05:23:23;;;;;;;4.35;3.10;;;-4.70;99.90;;;;;;5070741;28;20060;-62
2024/01/09 05:25:49;;;;;;;4.30;3.42;;;-4.70;99.90;;;;;;5071025;28;20178;-63
2024/01/09 05:28:16;;;;;;;4.75;3.28;;;-4.60;99.90;;;;;;5070642;28;20048;-62
2024/01/09 05:30:42;;;;;;;4.38;2.70;;;-4.70;99.90;;;;;;5070923;28;20040;-62
2024/01/09 05:33:09;;;;;;;3.92;2.80;;;-4.70;99.90;;;;;;5070853;28;20056;-62
2024/01/09 05:35:35;;;;;;;5.25;3.35;;;-4.70;99.90;;;;;;5069797;28;20110;-62
2024/01/09 05:38:01;;;;;;;5.07;3.53;;;-4.80;99.90;;;;;;5070460;28;20056;-62
2024/01/09 05:40:28;;;;;;;;;;;-4.70;99.90;;;;;;5074573;28;20063;-62
2024/01/09 05:42:54;;;;;;;4.25;3.13;;;-4.70;99.90;;;;;;5078552;28;19946;-62
2024/01/09 05:45:20;;;;;;;5.10;3.00;;;-4.70;99.90;;;;;;5078290;28;20058;-62
2024/01/09 05:47:46;;;;;;;4.85;2.85;;;-4.70;99.90;;;;;;5069805;28;20060;-62
2024/01/09 05:50:13;;;;;;;6.13;3.35;;;-4.70;99.90;;;;;;5069370;28;20070;-62
2024/01/09 05:52:39;;;;;;;5.53;3.65;;;-4.70;99.90;;;;;;5069836;28;20056;-63
2024/01/09 05:55:06;;;;;;;3.83;2.83;;;-4.70;99.90;;;;;;5070339;28;20063;-63
2024/01/09 05:57:32;;;;;;;4.78;3.60;;;-4.70;99.90;;;;;;5070179;28;20057;-62
2024/01/09 05:59:58;;;;;;;;;;;-4.70;99.90;;;;;;5070555;28;20059;-62
2024/01/09 06:02:28;;;;;;;3.97;2.72;;;-4.70;99.90;;;;;;5068885;28;19924;-63
2024/01/09 06:04:54;;;;;;;6.13;3.10;;;-4.80;99.90;;;;;;5069788;28;20056;-62
2024/01/09 06:07:20;;;;;;;5.70;3.45;;;-4.70;99.90;;;;;;5070402;28;20271;-63
2024/01/09 06:09:47;;;;;;;3.70;2.83;;;-4.70;99.90;;;;;;5068407;28;20479;-62
2024/01/09 06:12:13;;;;;;;4.55;3.33;;;-4.70;99.90;;;;;;5069209;28;20113;-62
2024/01/09 06:14:39;;;;;;;7.07;3.03;;;-4.70;99.90;;;;;;5069362;28;20045;-62
2024/01/09 06:17:06;;;;;;;4.70;3.15;;;-4.80;99.90;;;;;;5068026;28;20131;-62
2024/01/09 06:19:32;;;;;;;4.20;3.00;;;-4.80;99.90;;;;;;5072241;28;20040;-63
2024/01/09 06:21:58;;;;;;;4.78;3.67;;;-4.80;99.90;;;;;;5070238;28;20058;-62
2024/01/09 06:24:25;;;;;;;5.03;3.58;;;-4.80;99.90;;;;;;5069324;28;20052;-61
2024/01/09 06:26:51;;;;;;;5.38;3.17;;;-4.80;99.90;;;;;;5068570;28;20056;-62
2024/01/09 06:29:17;;;;;;;4.18;3.10;;;-4.80;99.90;;;;;;5069866;28;20049;-63
2024/01/09 06:31:43;;;;;;;4.85;3.47;;;-4.80;99.90;;;;;;5069345;28;20070;-63
2024/01/09 06:34:10;;;;;;;6.40;4.03;;;-4.80;99.90;;;;;;5067708;28;20059;-63
2024/01/09 06:36:36;;;;;;;4.25;3.13;;;-4.90;99.90;;;;;;5068033;28;20067;-62
2024/01/09 06:39:02;;;;;;;4.38;3.00;;;-4.90;99.90;;;;;;5068393;28;20076;-62
2024/01/09 06:41:29;;;;;;;4.72;3.40;;;-4.90;99.90;;;;;;5068540;28;20492;-63
2024/01/09 06:43:55;;;;;;;5.40;3.10;;;-5.00;99.90;;;;;;5068783;28;20135;-63
2024/01/09 06:46:21;;;;;;;5.30;3.53;;;-5.00;99.90;;;;;;5068293;28;20051;-62
2024/01/09 06:48:47;;;;;;;5.20;3.40;;;-4.90;99.90;;;;;;5068599;28;20052;-62
2024/01/09 06:51:14;;;;;;;5.20;3.13;;;-5.00;99.90;;;;;;5069433;28;20052;-63
2024/01/09 06:53:40;;;;;;;5.57;3.70;;;-5.00;99.90;;;;;;5068883;28;20449;-63
2024/01/09 06:56:06;;;;;;;;;;;-5.00;99.90;;;;;;5068860;28;20051;-63
2024/01/09 06:58:33;;;;;;;4.75;3.08;;;-5.10;99.90;;;;;;5069714;28;20326;-62
2024/01/09 07:00:59;;;;;;;4.57;3.10;;;-5.00;99.90;;;;;;5069707;28;20738;-63
2024/01/09 07:03:25;;;;;;;5.10;3.20;;;-5.10;99.90;;;;;;5069726;28;20499;-62
2024/01/09 07:05:51;;;;;;;4.63;3.00;;;-5.00;99.90;;;;;;5068426;28;20395;-63
2024/01/09 07:08:18;;;;;;;7.15;3.67;;;-5.00;99.90;;;;;;5069821;28;20064;-62
2024/01/09 07:10:45;;;;;;;4.95;3.33;;;-5.00;99.90;;;;;;5052159;28;20041;-61
2024/01/09 07:13:11;;;;;;;4.88;2.95;;;-4.80;99.90;;;;;;5069035;28;20067;-62
2024/01/09 07:15:37;;;;;;;4.95;3.00;;;-4.90;99.90;;;;;;5069200;28;20102;-61
2024/01/09 07:18:04;;;;;;;6.05;3.60;;;-5.10;99.90;;;;;;5069920;28;20067;-62
2024/01/09 07:20:30;;;;;;;;;;;-5.20;99.90;;;;;;5071505;28;20040;-61
2024/01/09 07:22:57;;;;;;;4.68;3.47;;;-5.10;99.90;;;;;;5073523;28;19978;-62
2024/01/09 07:25:23;;;;;;;;;;;-5.10;99.90;;;;;;5073664;28;20432;-62
2024/01/09 07:27:49;;;;;;;4.80;3.35;;;-5.20;99.90;;;;;;5073381;28;19930;-62
2024/01/09 07:30:16;;;;;;;4.32;2.92;;;-4.90;99.90;;;;;;5072460;28;20357;-61
2024/01/09 07:32:42;;;;;;;4.30;3.08;;;-5.20;99.90;;;;;;5072693;28;20060;-62
2024/01/09 07:35:09;;;;;;;4.57;2.83;;;-5.10;99.90;;;;;;5072678;28;20055;-62
2024/01/09 07:37:35;;;;;;;5.00;2.83;;;-4.80;99.90;;;;;;5072656;28;20353;-63
2024/01/09 07:40:03;;;;;;;4.55;3.30;;;-5.10;99.90;;;;;;5073646;28;20374;-63
2024/01/09 07:42:29;;;;;;;5.38;3.00;;;-5.00;99.90;;;;;;5072555;28;20349;-62
2024/01/09 07:44:55;;;;;;;4.82;3.03;;;-5.10;99.90;;;;;;5072679;28;20099;-62
2024/01/09 07:47:21;;;;;;;4.32;3.33;;;-5.10;99.90;;;;;;5073029;28;20059;-62
2024/01/09 07:49:48;;;;;;;7.78;3.30;;;-5.10;99.90;;;;;;5072813;28;20064;-61
2024/01/09 07:52:14;;;;;;;4.25;3.15;;;-5.10;99.90;;;;;;5072524;28;20071;-62
2024/01/09 07:54:41;;;;;;;5.75;3.78;;;-5.20;99.90;;;;;;5073821;28;20061;-61
2024/01/09 07:57:07;;;;;;;4.13;2.90;;;-5.10;99.90;;;;;;5073675;28;20422;-61
2024/01/09 07:59:33;;;;;;;4.93;3.08;;;-5.10;99.90;;;;;;5073431;28;20048;-62
2024/01/09 08:02:01;;;;;;;4.63;2.90;;;-5.00;99.90;;;;;;5073227;28;20049;-62
2024/01/09 08:04:30;;;;;;;4.72;3.55;;;-5.00;99.90;;;;;;5073273;28;20048;-62
2024/01/09 08:06:56;;;;;;;4.80;3.80;;;-5.00;99.90;;;;;;5073121;28;20388;-61
2024/01/09 08:09:23;;;;;;;6.25;3.08;;;-5.00;99.90;;;;;;5072019;28;20392;-63
2024/01/09 08:11:49;;;;;;;5.53;3.90;;;-4.90;99.90;;;;;;5071949;28;20056;-63
2024/01/09 08:14:15;;;;;;;4.90;3.30;;;-4.90;99.90;;;;;;5072087;28;20138;-62
2024/01/09 08:16:42;;;;;;;4.82;2.85;;;-5.00;99.90;;;;;;5072859;28;20045;-63
2024/01/09 08:19:09;;;;;;;4.78;3.13;;;-4.80;99.90;;;;;;5071919;28;20052;-62
2024/01/09 08:21:35;;;;;;;5.40;3.58;;;-4.90;99.90;;;;;;5073109;28;20087;-62
2024/01/09 08:24:02;;;;;;;5.97;3.78;;;-4.90;99.90;;;;;;5072064;28;20057;-61
2024/01/09 08:26:29;;;;;;;5.20;3.08;;;-4.90;99.90;;;;;;5072863;28;20429;-62
2024/01/09 08:28:56;;;;;;;4.90;2.97;;;-4.80;99.90;;;;;;5073255;28;20479;-62
2024/01/09 08:31:22;;;;;;;4.60;3.10;;;-4.70;99.90;;;;;;5071838;28;20525;-62
2024/01/09 08:33:49;;;;;;;5.38;3.55;;;-4.80;99.90;;;;;;5072542;28;20052;-63
2024/01/09 08:36:15;;;;;;;4.90;2.90;;;-4.70;99.90;;;;;;5071215;28;20044;-62
2024/01/09 08:38:41;;;;;;;4.88;3.25;;;-4.70;99.90;;;;;;5072990;28;20058;-62
2024/01/09 08:41:08;;;;;;;4.53;3.28;;;-4.70;99.90;;;;;;5072353;28;20479;-60
2024/01/09 08:43:34;;;;;;;6.15;3.13;;;-4.80;99.90;;;;;;5071840;28;20368;-62
2024/01/09 08:46:00;;;;;;;3.92;2.80;;;-4.70;99.90;;;;;;5071564;28;20059;-63
2024/01/09 08:48:27;;;;;;;4.68;3.25;;;-4.70;99.90;;;;;;5071085;28;20048;-63
2024/01/09 08:50:53;;;;;;;7.32;4.55;;;-4.60;99.90;;;;;;5071095;28;20048;-61
2024/01/09 08:53:20;;;;;;;4.72;2.92;;;-4.60;99.90;;;;;;5071571;28;20109;-62
2024/01/09 08:55:46;;;;;;;4.75;3.20;;;-4.50;99.90;;;;;;5070780;28;20147;-63
2024/01/09 08:58:13;;;;;;;4.78;3.22;;;-4.40;99.90;;;;;;5072515;28;20063;-62
2024/01/09 09:00:39;;;;;;;6.43;2.97;;;-4.40;99.90;;;;;;5071029;28;20044;-62
2024/01/09 09:03:05;;;;;;;4.63;3.08;;;-4.30;99.90;;;;;;5071405;28;20059;-62
2024/01/09 09:05:31;;;;;;;4.90;3.10;;;-4.40;99.90;;;;;;5071406;28;20052;-62
2024/01/09 09:07:58;;;;;;;4.82;3.13;;;-4.30;99.90;;;;;;5070701;28;20483;-63
2024/01/09 09:10:24;;;;;;;5.18;3.20;;;-4.20;99.90;;;;;;5070483;28;20052;-62
2024/01/09 09:12:50;;;;;;;4.65;2.80;;;-4.10;99.90;;;;;;5071120;28;20060;-62
2024/01/09 09:15:17;;;;;;;5.13;3.20;;;-4.20;99.90;;;;;;5070542;28;20403;-64
2024/01/09 09:17:43;;;;;;;6.28;3.35;;;-4.10;99.90;;;;;;5070759;28;20056;-63
2024/01/09 09:20:11;;;;;;;5.47;2.65;;;-4.20;99.90;;;;;;5071633;28;20059;-62
2024/01/09 09:22:38;;;;;;;8.10;3.40;;;-4.20;99.90;;;;;;5071245;28;20354;-63
2024/01/09 09:25:04;;;;;;;4.30;3.00;;;-4.10;99.90;;;;;;5070475;28;20048;-62
2024/01/09 09:27:31;;;;;;;4.40;2.72;;;-4.10;99.90;;;;;;5071379;28;20045;-63
2024/01/09 09:29:58;;;;;;;4.20;2.75;;;-3.90;99.90;;;;;;5071868;28;20044;-64
2024/01/09 09:32:24;;;;;;;;;;;-3.90;99.90;;;;;;5070863;28;20064;-63
2024/01/09 09:34:50;;;;;;;6.22;3.10;;;-3.80;99.90;;;;;;5070699;28;19928;-64
2024/01/09 09:37:16;;;;;;;5.15;2.92;;;-3.70;99.90;;;;;;5070884;28;20045;-63
2024/01/09 09:39:43;;;;;;;4.82;2.65;;;-3.60;99.90;;;;;;5070992;28;20387;-62
2024/01/09 09:42:10;;;;;;;4.75;3.38;;;-3.60;99.90;;;;;;5070214;28;20048;-63
2024/01/09 09:44:37;;;;;;;5.13;2.63;;;-3.60;99.90;;;;;;5070317;28;20056;-63
2024/01/09 09:47:05;;;;;;;5.97;2.72;;;-3.50;99.90;;;;;;5070906;28;20071;-62
2024/01/09 09:49:34;;;;;;;5.88;3.45;;;-3.40;99.90;;;;;;5070172;28;20064;-62
2024/01/09 09:52:01;;;;;;;4.75;3.28;;;-3.30;99.90;;;;;;5069811;28;20056;-62
2024/01/09 09:54:28;;;;;;;5.50;2.83;;;-3.30;99.90;;;;;;5069942;28;20056;-64
2024/01/09 09:56:54;;;;;;;4.97;2.95;;;-3.20;99.90;;;;;;5070251;28;20460;-62
2024/01/09 09:59:20;;;;;;;5.15;3.47;;;-3.20;99.90;;;;;;5070998;28;20354;-64
2024/01/09 10:01:47;;;;;;;4.53;2.80;;;-3.20;99.90;;;;;;5070736;28;20070;-64
2024/01/09 10:04:36;;;;;;;6.00;3.22;;;-3.10;99.90;;;;;;5070705;28;20051;-63
2024/01/09 10:07:05;;;;;;;5.45;2.78;;;-3.10;99.90;;;;;;5069918;28;20055;-63
2024/01/09 10:09:35;;;;;;;4.50;2.67;;;-3.00;99.90;;;;;;5052759;28;20060;-64
2024/01/09 10:12:02;;;;;;;4.10;2.83;;;-3.00;99.90;;;;;;5069437;28;20060;-64
2024/01/09 10:14:28;;;;;;;4.00;2.70;;;-2.90;99.90;;;;;;5069147;28;20113;-64
2024/01/09 10:16:55;;;;;;;4.53;2.88;;;-2.80;99.90;;;;;;5068775;28;20127;-64
2024/01/09 10:19:23;;;;;;;3.80;2.97;;;-2.70;99.90;;;;;;5069911;28;20059;-62
2024/01/09 10:21:50;;;;;;;4.22;2.97;;;-2.70;99.90;;;;;;5068838;28;20062;-63
2024/01/09 10:24:17;;;;;;;4.57;2.80;;;-2.60;99.90;;;;;;5069075;28;20067;-63
2024/01/09 10:26:43;;;;;;;4.47;2.78;;;-2.50;99.90;;;;;;5069783;28;20472;-63
2024/01/09 10:29:10;;;;;;;5.13;2.83;;;-2.40;99.90;;;;;;5069234;28;20056;-63
2024/01/09 10:31:38;;;;;;;3.92;2.53;;;-2.40;99.90;;;;;;5069062;28;20503;-63
2024/01/09 10:34:05;;;;;;;5.13;3.42;;;-2.40;99.90;;;;;;5068951;28;20061;-63
2024/01/09 10:36:32;;;;;;;6.05;3.13;;;-2.20;99.90;;;;;;5068014;28;20086;-62
2024/01/09 10:39:05;;;;;;;6.55;2.90;;;-2.20;99.90;;;;;;5069985;28;20163;-62
2024/01/09 10:41:33;;;;;;;6.50;2.90;;;-2.20;99.90;;;;;;5051846;28;20063;-63
2024/01/09 10:44:00;;;;;;;3.95;2.60;;;-2.30;99.90;;;;;;5068912;28;20063;-62
2024/01/09 10:46:29;;;;;;;3.90;3.10;;;-2.20;99.90;;;;;;5068189;28;20064;-62
2024/01/09 10:48:57;;;;;;;4.47;2.88;;;-2.10;99.90;;;;;;5069280;28;20153;-63
2024/01/09 10:51:24;;;;;;;5.30;3.10;;;-2.10;99.90;;;;;;5069669;28;20079;-64
2024/01/09 10:53:51;;;;;;;6.10;3.10;;;-2.10;99.90;;;;;;5068623;28;20052;-62
2024/01/09 10:56:21;;;;;;;4.28;2.97;;;-2.00;99.90;;;;;;5051589;28;20053;-64
2024/01/09 10:58:49;;;;;;;5.53;3.05;;;-2.00;99.90;;;;;;5069565;28;20475;-64
2024/01/09 11:01:15;;;;;;;4.25;2.50;;;-2.00;99.90;;;;;;5068415;28;20060;-64
2024/01/09 11:03:43;;;;;;;4.63;2.63;;;-2.00;99.90;;;;;;5069536;28;20461;-63
2024/01/09 11:06:09;;;;;;;5.55;3.47;;;-2.00;99.90;;;;;;5068348;28;20113;-62
2024/01/09 11:08:37;;;;;;;4.57;2.60;;;-2.00;99.90;;;;;;5068703;28;20075;-63
2024/01/09 11:11:11;;;;;;;5.40;2.83;;;-2.00;99.90;;;;;;5068593;28;20063;-62
2024/01/09 11:13:42;;;;;;;4.25;2.30;;;-2.00;99.90;;;;;;5069657;28;20056;-63
2024/01/09 11:16:11;;;;;;;5.53;2.60;;;-1.90;99.90;;;;;;5068627;28;20117;-63
2024/01/09 11:18:40;;;;;;;4.78;2.67;;;-1.80;99.90;;;;;;5069798;28;20040;-63
2024/01/09 11:21:06;;;;;;;5.93;3.08;;;-1.80;99.90;;;;;;5069299;28;20048;-63
2024/01/09 11:24:00;;;;;;;;;;;-1.80;99.90;;;;;;5070003;28;20071;-64
2024/01/09 11:26:34;;;;;;;7.47;2.60;;;-1.80;99.90;;;;;;5067926;28;19924;-63
2024/01/09 11:29:00;;;;;;;4.68;2.80;;;-1.70;99.90;;;;;;5068555;28;20071;-63
2024/01/09 11:31:27;;;;;;;;;;;-1.70;99.90;;;;;;5068721;28;20067;-63
2024/01/09 11:33:57;;;;;;;7.57;3.28;;;-1.70;99.90;;;;;;5069144;28;20427;-63
2024/01/09 11:36:27;;;;;;;4.82;2.60;;;-1.60;99.90;;;;;;5067750;28;20496;-62
2024/01/09 11:38:54;;;;;;;5.65;2.97;;;-1.60;99.90;;;;;;5069529;28;20427;-62
2024/01/09 11:41:31;;;;;;;4.25;2.70;;;-1.60;99.90;;;;;;5068857;28;20641;-63
2024/01/09 11:44:02;;;;;;;4.05;2.30;;;-1.50;99.90;;;;;;5069319;28;20045;-62
2024/01/09 11:46:35;;;;;;;4.97;3.22;;;-1.50;99.90;;;;;;5069079;28;20319;-62
2024/01/09 11:49:02;;;;;;;4.22;2.78;;;-1.40;99.90;;;;;;5068626;28;20060;-61
2024/01/09 11:51:30;;;;;;;5.90;3.22;;;-1.40;99.90;;;;;;5068818;28;20056;-63
2024/01/09 11:54:01;;;;;;;4.88;2.28;;;-1.40;99.90;;;;;;5068893;28;20052;-61
2024/01/09 11:56:28;;;;;;;5.03;3.00;;;-1.40;99.90;;;;;;5067708;28;20044;-62
2024/01/09 11:58:54;;;;;;;4.32;2.67;;;-1.30;99.90;;;;;;5067958;28;20045;-62
2024/01/09 12:01:21;;;;;;;3.65;2.63;;;-1.30;99.90;;;;;;5069001;28;20341;-64
2024/01/09 12:03:56;;;;;;;4.25;2.65;;;-1.30;99.90;;;;;;5069337;28;20059;-63
2024/01/09 12:06:24;;;;;;;3.83;2.60;;;-1.20;99.90;;;;;;5068796;28;20044;-62
2024/01/09 12:08:52;;;;;;;3.55;2.45;;;-1.30;99.90;;;;;;5071606;28;20456;-63
2024/01/09 12:11:18;;;;;;;4.78;2.78;;;-1.30;99.90;;;;;;5071980;28;20044;-63
2024/01/09 12:13:45;;;;;;;;;;;-1.20;99.90;;;;;;5072794;28;20525;-63
2024/01/09 12:16:22;;;;;;;4.70;2.78;;;-1.30;99.90;;;;;;5072031;28;19935;-63
2024/01/09 12:18:55;;;;;;;3.63;2.50;;;-1.20;99.90;;;;;;5071220;28;20048;-62
2024/01/09 12:21:24;;;;;;;4.50;2.72;;;-1.20;99.90;;;;;;5071690;28;20086;-63
2024/01/09 12:23:51;;;;;;;5.93;3.55;;;-1.20;99.90;;;;;;5072516;28;20074;-62
2024/01/09 12:26:19;;;;;;;5.15;2.72;;;-1.10;99.90;;;;;;5072004;28;20064;-64
2024/01/09 12:28:46;;;;;;;4.25;2.50;;;-1.10;99.90;;;;;;5072286;28;20052;-63
2024/01/09 12:31:17;;;;;;;4.95;3.42;;;-1.20;99.90;;;;;;5071119;28;20373;-63
2024/01/09 12:33:44;;;;;;;5.50;2.88;;;-1.10;99.90;;;;;;5072083;28;20068;-63
2024/01/09 12:36:11;;;;;;;5.25;3.13;;;-1.00;99.90;;;;;;5070739;28;20044;-62
2024/01/09 12:38:38;;;;;;;5.55;3.00;;;-1.00;99.90;;;;;;5072291;28;20068;-63
2024/01/09 12:41:04;;;;;;;4.70;2.67;;;-1.00;99.90;;;;;;5071066;28;20049;-63
2024/01/09 12:43:31;;;;;;;4.70;3.00;;;-1.00;99.90;;;;;;5070740;28;20059;-61
2024/01/09 12:46:00;;;;;;;4.82;3.00;;;-0.90;99.90;;;;;;5071609;28;20052;-64
2024/01/09 12:48:26;;;;;;;4.30;2.97;;;-1.00;99.90;;;;;;5071579;28;20059;-62
2024/01/09 12:51:02;;;;;;;5.13;3.10;;;-0.90;99.90;;;;;;5070748;28;20052;-63
2024/01/09 12:53:31;;;;;;;3.70;2.72;;;-1.00;99.90;;;;;;5070817;28;20133;-63